Time;durP1;ratioP1;P1;durP2;ratioP2;P2;SDS_P1;SDS_P2;PMS_P1;PMS_P2;Temp;Humidity;BMP_temperature;BMP_pressure;BME280_temperature;BME280_humidity;BME280_pressure;Samples;Min_cycle;Max_cycle;Signal;HPM_P1;HPM_P2
2022/10/25 00:01:01;;;;;;;5.07;4.07;;;;;;;9.56;100.00;97175.91;4937104;28;20214;-62
2022/10/25 00:03:29;;;;;;;4.27;3.87;;;;;;;9.59;100.00;97161.53;4935759;28;20372;-63
2022/10/25 00:05:57;;;;;;;4.93;4.50;;;;;;;9.61;100.00;97156.03;4909056;28;20414;-62
2022/10/25 00:08:26;;;;;;;4.10;3.70;;;;;;;9.61;100.00;97156.88;4887705;28;20419;-64
2022/10/25 00:10:54;;;;;;;4.60;4.20;;;;;;;9.65;100.00;97158.16;4910266;28;20213;-64
2022/10/25 00:13:22;;;;;;;5.07;3.90;;;;;;;9.64;100.00;97164.47;4936369;28;20209;-64
2022/10/25 00:15:50;;;;;;;4.83;4.10;;;;;;;9.62;100.00;97171.75;4935192;28;20430;-64
2022/10/25 00:18:19;;;;;;;4.23;3.93;;;;;;;9.59;100.00;97165.97;4936994;28;20870;-63
2022/10/25 00:20:48;;;;;;;4.13;3.80;;;;;;;9.54;100.00;97170.00;4906688;28;20585;-64
2022/10/25 00:23:16;;;;;;;3.90;3.60;;;;;;;9.47;100.00;97161.13;4926738;28;20293;-64
2022/10/25 00:25:45;;;;;;;4.70;4.00;;;;;;;9.49;100.00;97174.19;4873815;28;20588;-63
2022/10/25 00:28:13;;;;;;;3.93;3.63;;;;;;;9.38;100.00;97156.91;4937810;28;20230;-64
2022/10/25 00:30:41;;;;;;;3.43;3.17;;;;;;;9.36;100.00;97172.13;4934200;28;20710;-64
2022/10/25 00:33:09;;;;;;;6.30;4.60;;;;;;;9.31;100.00;97174.47;4938360;28;20209;-64
2022/10/25 00:35:38;;;;;;;3.90;3.60;;;;;;;9.28;100.00;97178.28;4934052;28;20579;-63
2022/10/25 00:38:07;;;;;;;5.83;4.37;;;;;;;9.23;100.00;97167.41;4908441;28;20850;-63
2022/10/25 00:40:35;;;;;;;4.60;4.13;;;;;;;9.35;100.00;97183.69;4855399;28;20485;-64
2022/10/25 00:43:03;;;;;;;4.17;3.87;;;;;;;9.37;100.00;97184.34;4904366;28;20483;-65
2022/10/25 00:45:31;;;;;;;4.47;3.80;;;;;;;9.38;100.00;97191.28;4936081;28;20234;-64
2022/10/25 00:48:01;;;;;;;5.60;4.03;;;;;;;9.37;100.00;97182.50;4935972;28;21168;-65
2022/10/25 00:50:36;;;;;;;4.43;3.73;;;;;;;9.34;100.00;97190.78;4936133;28;20509;-61
2022/10/25 00:53:09;;;;;;;5.50;3.93;;;;;;;9.34;100.00;97192.63;4906162;28;21529;-62
2022/10/25 00:55:38;;;;;;;4.07;3.77;;;;;;;9.27;100.00;97182.72;4866042;28;21499;-63
2022/10/25 00:58:09;;;;;;;4.13;3.83;;;;;;;9.24;100.00;97188.38;4932975;28;20256;-65
2022/10/25 01:00:37;;;;;;;7.10;3.67;;;;;;;9.19;100.00;97187.28;4936878;28;20205;-65
2022/10/25 01:03:06;;;;;;;4.63;3.87;;;;;;;9.08;100.00;97191.13;4934229;28;20322;-64
2022/10/25 01:05:34;;;;;;;4.43;3.77;;;;;;;8.96;100.00;97191.53;4935085;28;20685;-62
2022/10/25 01:08:02;;;;;;;3.07;2.80;;;;;;;9.01;100.00;97192.84;4908371;28;20248;-63
2022/10/25 01:10:32;;;;;;;3.57;2.80;;;;;;;8.90;100.00;97191.41;4882528;28;20928;-62
2022/10/25 01:13:01;;;;;;;3.13;2.97;;;;;;;8.82;100.00;97192.25;4936788;28;20216;-59
2022/10/25 01:15:34;;;;;;;4.67;3.40;;;;;;;8.82;100.00;97193.09;4932389;28;20209;-63
2022/10/25 01:18:10;;;;;;;5.73;3.33;;;;;;;8.79;100.00;97195.25;4937090;28;20229;-63
2022/10/25 01:20:51;;;;;;;3.73;3.30;;;;;;;8.68;100.00;97205.19;4932498;28;20206;-61
2022/10/25 01:23:41;;;;;;;5.57;3.33;;;;;;;8.66;100.00;97207.19;4910953;28;20213;-63
2022/10/25 01:26:33;;;;;;;3.50;3.20;;;;;;;8.58;100.00;97209.88;4890107;28;20454;-61
2022/10/25 01:29:21;;;;;;;3.43;3.23;;;;;;;8.52;100.00;97210.53;4935098;28;20221;-64
2022/10/25 01:31:54;;;;;;;4.13;3.33;;;;;;;8.51;100.00;97193.88;4935871;28;20474;-64
2022/10/25 01:34:26;;;;;;;4.57;2.93;;;;;;;8.48;100.00;97198.63;4934212;28;20210;-63
2022/10/25 01:37:01;;;;;;;3.73;3.53;;;;;;;8.53;100.00;97193.72;4934165;28;20240;-63
2022/10/25 01:39:33;;;;;;;3.97;3.60;;;;;;;8.47;100.00;97192.53;4907729;28;20513;-62
2022/10/25 01:42:04;;;;;;;3.40;3.10;;;;;;;8.38;100.00;97183.81;4892358;28;20244;-63
2022/10/25 01:44:39;;;;;;;3.70;3.40;;;;;;;8.47;100.00;97191.69;4931895;28;20869;-63
2022/10/25 01:47:13;;;;;;;4.07;3.77;;;;;;;8.44;100.00;97184.13;4936090;28;20748;-63
2022/10/25 01:49:44;;;;;;;4.13;3.50;;;;;;;8.45;100.00;97196.31;4932603;28;20309;-61
2022/10/25 01:52:50;;;;;;;4.23;3.83;;;;;;;8.38;100.00;97191.72;4935929;28;20701;-65
2022/10/25 01:55:19;;;;;;;3.80;3.50;;;;;;;8.40;100.00;97199.50;4948531;28;20423;-65
2022/10/25 01:57:58;;;;;;;5.07;3.57;;;;;;;8.32;100.00;97207.41;4909293;28;20730;-64
2022/10/25 02:00:27;;;;;;;4.07;3.67;;;;;;;8.19;100.00;97215.88;4950070;28;20205;-64
2022/10/25 02:03:10;;;;;;;6.47;3.83;;;;;;;8.11;100.00;97208.78;4953328;28;20209;-63
2022/10/25 02:05:48;;;;;;;4.33;3.83;;;;;;;8.07;100.00;97216.22;4954542;28;20751;-64
2022/10/25 02:08:24;;;;;;;3.93;3.13;;;;;;;8.05;100.00;97212.91;4932248;28;20224;-60
2022/10/25 02:10:59;;;;;;;3.97;3.50;;;;;;;8.04;100.00;97213.91;4950920;28;21097;-63
2022/10/25 02:13:30;;;;;;;4.37;3.97;;;;;;;8.10;100.00;97215.88;4908941;28;20228;-64
2022/10/25 02:16:01;;;;;;;3.60;3.37;;;;;;;8.16;100.00;97213.59;4952824;28;20283;-64
2022/10/25 02:18:33;;;;;;;3.20;3.00;;;;;;;8.11;100.00;97214.88;4952305;28;20453;-64
2022/10/25 02:21:02;;;;;;;3.53;3.23;;;;;;;8.09;100.00;97213.41;4951738;28;20868;-60
2022/10/25 02:23:33;;;;;;;4.23;3.83;;;;;;;8.03;100.00;97209.63;4952631;28;20208;-63
2022/10/25 02:26:01;;;;;;;3.93;3.57;;;;;;;7.89;100.00;97203.19;4933113;28;20445;-61
2022/10/25 02:28:30;;;;;;;4.53;3.73;;;;;;;7.88;100.00;97208.66;4905987;28;20217;-61
2022/10/25 02:30:59;;;;;;;3.73;3.53;;;;;;;7.83;100.00;97201.22;4927513;28;20565;-64
2022/10/25 02:33:27;;;;;;;5.33;3.67;;;;;;;7.80;100.00;97210.31;4953594;28;20575;-61
2022/10/25 02:36:13;;;;;;;3.50;3.20;;;;;;;7.75;100.00;97202.06;4950266;28;20942;-61
2022/10/25 02:38:42;;;;;;;3.90;3.00;;;;;;;7.75;100.00;97201.25;4941081;28;20208;-58
2022/10/25 02:41:11;;;;;;;5.47;3.27;;;;;;;7.86;100.00;97203.53;4939348;28;20205;-58
2022/10/25 02:43:39;;;;;;;3.63;3.33;;;;;;;7.87;100.00;97205.19;4906609;28;20229;-59
2022/10/25 02:46:08;;;;;;;3.07;2.70;;;;;;;7.87;100.00;97204.38;4951067;28;20236;-58
2022/10/25 02:48:37;;;;;;;2.77;2.57;;;;;;;7.86;100.00;97211.44;4953558;28;20971;-57
2022/10/25 02:51:05;;;;;;;2.93;2.73;;;;;;;7.85;100.00;97214.28;4953912;28;20204;-58
2022/10/25 02:53:36;;;;;;;3.03;2.73;;;;;;;7.88;100.00;97206.03;4954789;28;20280;-58
2022/10/25 02:56:06;;;;;;;2.23;2.03;;;;;;;7.90;100.00;97209.31;4927599;28;20221;-58
2022/10/25 02:58:36;;;;;;;2.60;2.40;;;;;;;7.88;100.00;97213.94;4905940;28;20555;-58
2022/10/25 03:01:05;;;;;;;2.40;2.30;;;;;;;7.86;100.00;97216.72;4956577;28;20203;-64
2022/10/25 03:03:34;;;;;;;2.60;2.40;;;;;;;7.82;100.00;97215.41;4949096;28;21007;-64
2022/10/25 03:06:03;;;;;;;2.70;2.40;;;;;;;7.79;100.00;97213.09;4951877;28;20225;-63
2022/10/25 03:08:31;;;;;;;2.37;2.27;;;;;;;7.77;100.00;97212.44;4950096;28;20244;-63
2022/10/25 03:11:01;;;;;;;2.37;2.17;;;;;;;7.68;100.00;97211.63;4931566;28;20209;-62
2022/10/25 03:13:29;;;;;;;2.87;2.70;;;;;;;7.52;100.00;97204.53;4878561;28;20729;-62
2022/10/25 03:15:57;;;;;;;2.90;2.70;;;;;;;7.51;100.00;97214.25;4954382;28;20227;-61
2022/10/25 03:18:25;;;;;;;2.43;2.23;;;;;;;7.48;100.00;97219.03;4950877;28;20202;-63
2022/10/25 03:20:56;;;;;;;3.37;2.50;;;;;;;7.44;100.00;97210.63;4955399;28;20216;-64
2022/10/25 03:23:25;;;;;;;2.90;2.70;;;;;;;7.41;100.00;97221.50;4953007;28;20747;-63
2022/10/25 03:25:53;;;;;;;2.87;2.67;;;;;;;7.35;100.00;97222.97;4930897;28;20997;-62
2022/10/25 03:28:23;;;;;;;3.60;3.40;;;;;;;7.33;100.00;97226.75;4953706;28;20811;-64
2022/10/25 03:30:51;;;;;;;5.63;3.43;;;;;;;7.27;100.00;97227.41;4905968;28;20213;-63
2022/10/25 03:33:19;;;;;;;4.43;3.10;;;;;;;7.18;100.00;97227.38;4949173;28;20238;-64
2022/10/25 03:35:50;;;;;;;3.23;2.77;;;;;;;7.10;100.00;97225.53;4956442;28;20284;-63
2022/10/25 03:38:19;;;;;;;2.97;2.77;;;;;;;7.09;100.00;97231.00;4953919;28;20228;-65
2022/10/25 03:40:47;;;;;;;3.07;2.77;;;;;;;7.04;100.00;97234.09;4934936;28;20251;-64
2022/10/25 03:43:15;;;;;;;5.23;4.03;;;;;;;7.08;100.00;97230.16;4954829;28;20216;-63
2022/10/25 03:45:44;;;;;;;3.60;2.63;;;;;;;7.24;100.00;97233.84;4909978;28;20254;-62
2022/10/25 03:48:14;;;;;;;4.23;2.97;;;;;;;7.33;100.00;97247.81;4955457;28;21019;-61
2022/10/25 03:50:43;;;;;;;5.40;3.87;;;;;;;7.27;100.00;97238.78;4957386;28;20209;-63
2022/10/25 03:53:11;;;;;;;4.33;3.40;;;;;;;7.37;100.00;97249.16;4955603;28;20213;-65
2022/10/25 03:55:39;;;;;;;4.60;4.20;;;;;;;7.36;100.00;97245.72;4955238;28;21109;-65
2022/10/25 03:58:08;;;;;;;5.87;4.30;;;;;;;7.45;100.00;97240.44;4931702;28;20248;-63
2022/10/25 04:00:36;;;;;;;4.00;3.50;;;;;;;7.45;100.00;97245.72;4904263;28;20804;-65
2022/10/25 04:03:05;;;;;;;6.53;4.37;;;;;;;7.43;100.00;97243.25;4955543;28;20208;-65
2022/10/25 04:05:38;;;;;;;4.03;3.50;;;;;;;7.41;100.00;97253.16;4953886;28;22188;-64
2022/10/25 04:08:07;;;;;;;4.07;3.57;;;;;;;7.44;100.00;97255.44;4954612;28;20325;-62
2022/10/25 04:10:35;;;;;;;8.50;3.83;;;;;;;7.38;100.00;97250.81;4951378;28;20301;-65
2022/10/25 04:13:03;;;;;;;3.97;3.67;;;;;;;7.38;100.00;97256.06;4932152;28;20235;-67
2022/10/25 04:15:31;;;;;;;4.10;3.57;;;;;;;7.41;100.00;97255.78;4954816;28;20205;-64
2022/10/25 04:18:00;;;;;;;5.73;3.57;;;;;;;7.35;100.00;97253.75;4928215;28;20228;-63
2022/10/25 04:20:29;;;;;;;4.10;3.47;;;;;;;7.30;100.00;97264.81;4954827;28;20205;-63
2022/10/25 04:22:58;;;;;;;4.47;2.87;;;;;;;7.36;100.00;97263.31;4957603;28;20834;-62
2022/10/25 04:25:27;;;;;;;3.43;3.00;;;;;;;7.34;100.00;97260.88;4956091;28;20575;-65
2022/10/25 04:27:56;;;;;;;3.10;2.90;;;;;;;7.42;100.00;97264.50;4932475;28;20229;-68
2022/10/25 04:30:24;;;;;;;3.63;3.33;;;;;;;7.40;100.00;97267.31;4927959;28;20205;-66
2022/10/25 04:32:52;;;;;;;3.27;3.03;;;;;;;7.38;100.00;97258.72;4894811;28;20221;-67
2022/10/25 04:35:20;;;;;;;4.07;2.97;;;;;;;7.41;100.00;97268.13;4929888;28;20404;-66
2022/10/25 04:37:50;;;;;;;3.17;2.87;;;;;;;7.37;100.00;97267.59;4958452;28;20229;-62
2022/10/25 04:40:18;;;;;;;4.73;3.07;;;;;;;7.35;100.00;97266.94;4954658;28;21268;-62
2022/10/25 04:42:50;;;;;;;3.83;3.50;;;;;;;7.28;100.00;97260.66;4957088;28;20209;-62
2022/10/25 04:45:19;;;;;;;2.97;2.77;;;;;;;7.29;100.00;97259.69;4933649;28;20216;-62
2022/10/25 04:47:47;;;;;;;3.03;2.83;;;;;;;7.24;100.00;97257.56;4957874;28;20240;-64
2022/10/25 04:50:15;;;;;;;3.30;3.07;;;;;;;7.21;100.00;97261.31;4896084;28;20232;-64
2022/10/25 04:52:44;;;;;;;4.43;3.27;;;;;;;7.23;100.00;97253.28;4954190;28;20213;-64
2022/10/25 04:55:14;;;;;;;3.40;3.20;;;;;;;7.23;100.00;97261.97;4955777;28;20213;-64
2022/10/25 04:57:43;;;;;;;5.97;3.50;;;;;;;7.23;100.00;97261.97;4954453;28;20221;-61
2022/10/25 05:00:12;;;;;;;4.23;3.00;;;;;;;7.21;100.00;97260.50;4929980;28;21314;-62
2022/10/25 05:02:40;;;;;;;3.80;3.50;;;;;;;7.26;100.00;97267.91;4955146;28;20748;-62
2022/10/25 05:05:09;;;;;;;6.17;3.50;;;;;;;7.25;100.00;97261.84;4906836;28;20221;-61
2022/10/25 05:07:38;;;;;;;3.80;3.50;;;;;;;7.24;100.00;97276.00;4952753;28;20256;-62
2022/10/25 05:10:06;;;;;;;6.03;4.00;;;;;;;7.28;100.00;97276.50;4956111;28;20216;-62
2022/10/25 05:12:36;;;;;;;5.83;5.10;;;;;;;7.29;100.00;97278.97;4951440;28;20205;-62
2022/10/25 05:15:05;;;;;;;5.93;5.43;;;;;;;7.32;100.00;97286.56;4929612;28;20243;-59
2022/10/25 05:17:33;;;;;;;5.80;5.40;;;;;;;7.38;100.00;97287.72;4953144;28;20511;-63
2022/10/25 05:20:03;;;;;;;6.73;6.03;;;;;;;7.33;100.00;97288.22;4951169;28;20298;-62
2022/10/25 05:22:32;;;;;;;7.37;6.73;;;;;;;7.31;100.00;97286.69;4916875;28;20213;-59
2022/10/25 05:25:00;;;;;;;7.40;6.80;;;;;;;7.33;100.00;97290.00;4956421;28;20205;-64
2022/10/25 05:27:28;;;;;;;8.53;6.90;;;;;;;7.28;100.00;97287.88;4950744;28;20442;-61
2022/10/25 05:29:58;;;;;;;7.40;6.70;;;;;;;7.23;100.00;97298.06;4955459;28;20206;-64
2022/10/25 05:32:26;;;;;;;10.90;7.70;;;;;;;7.34;100.00;97289.00;4927449;28;20776;-63
2022/10/25 05:34:54;;;;;;;8.93;8.03;;;;;;;7.36;100.00;97281.78;4947205;28;20304;-63
2022/10/25 05:37:22;;;;;;;9.00;8.10;;;;;;;7.38;100.00;97288.53;4902306;28;20236;-62
2022/10/25 05:39:51;;;;;;;9.33;8.43;;;;;;;7.31;100.00;97290.19;4955151;28;20236;-61
2022/10/25 05:42:19;;;;;;;9.27;8.23;;;;;;;7.35;100.00;97298.56;4950806;28;20205;-63
2022/10/25 05:44:47;;;;;;;8.93;8.03;;;;;;;7.31;100.00;97299.88;4956155;28;20213;-63
2022/10/25 05:47:17;;;;;;;10.40;8.90;;;;;;;7.32;100.00;97297.09;4926537;28;20227;-63
2022/10/25 05:49:45;;;;;;;13.13;9.80;;;;;;;7.34;100.00;97300.41;4955535;28;20675;-62
2022/10/25 05:52:14;;;;;;;11.33;9.73;;;;;;;7.33;100.00;97300.53;4905357;28;20621;-64
2022/10/25 05:54:42;;;;;;;13.93;9.80;;;;;;;7.34;100.00;97299.56;4952157;28;20227;-63
2022/10/25 05:57:10;;;;;;;10.40;9.40;;;;;;;7.37;100.00;97309.78;4953275;28;20866;-63
2022/10/25 05:59:39;;;;;;;13.63;10.10;;;;;;;7.37;100.00;97307.16;4952208;28;20579;-63
2022/10/25 06:02:09;;;;;;;13.40;10.17;;;;;;;7.46;100.00;97310.63;4929032;28;20231;-63
2022/10/25 06:04:39;;;;;;;15.27;10.50;;;;;;;7.45;100.00;97307.19;4952803;28;20412;-62
2022/10/25 06:07:07;;;;;;;11.87;10.20;;;;;;;7.58;100.00;97316.44;4906036;28;20232;-63
2022/10/25 06:09:36;;;;;;;10.43;9.37;;;;;;;7.58;100.00;97312.00;4951844;28;20458;-59
2022/10/25 06:12:05;;;;;;;13.17;10.23;;;;;;;7.58;100.00;97319.06;4954281;28;20215;-64
2022/10/25 06:14:36;;;;;;;14.40;10.50;;;;;;;7.61;100.00;97324.03;4953873;28;20834;-61
2022/10/25 06:17:05;;;;;;;14.50;10.83;;;;;;;7.61;100.00;97330.13;4949930;28;20224;-61
2022/10/25 06:19:33;;;;;;;12.60;10.70;;;;;;;7.60;100.00;97327.66;4938384;28;21078;-62
2022/10/25 06:22:03;;;;;;;12.17;10.97;;;;;;;7.64;100.00;97323.69;4950429;28;20208;-61
2022/10/25 06:24:32;;;;;;;11.20;10.07;;;;;;;7.65;100.00;97330.63;4921155;28;20220;-63
2022/10/25 06:27:00;;;;;;;17.07;10.23;;;;;;;7.69;100.00;97334.59;4954786;28;20236;-61
2022/10/25 06:29:28;;;;;;;13.97;11.17;;;;;;;7.79;100.00;97339.72;4950403;28;20337;-62
2022/10/25 06:31:56;;;;;;;12.67;11.37;;;;;;;7.82;100.00;97336.75;4955597;28;20216;-61
2022/10/25 06:34:25;;;;;;;14.80;12.27;;;;;;;7.90;100.00;97343.88;4923231;28;20432;-64
2022/10/25 06:36:53;;;;;;;11.60;10.20;;;;;;;7.99;100.00;97345.50;4944539;28;20220;-60
2022/10/25 06:39:23;;;;;;;14.90;11.23;;;;;;;8.06;100.00;97345.69;4899278;28;20217;-60
2022/10/25 06:41:51;;;;;;;15.53;11.60;;;;;;;8.16;100.00;97350.81;4956758;28;20715;-62
2022/10/25 06:44:19;;;;;;;15.57;12.47;;;;;;;8.19;100.00;97358.41;4954031;28;20209;-61
2022/10/25 06:46:47;;;;;;;18.33;12.10;;;;;;;8.24;100.00;97356.09;4957074;28;20240;-62
2022/10/25 06:49:36;;;;;;;18.43;12.23;;;;;;;8.24;100.00;97353.47;4930777;28;20213;-61
2022/10/25 06:52:04;;;;;;;20.93;14.10;;;;;;;8.25;100.00;97352.47;4957523;28;20213;-60
2022/10/25 06:54:34;;;;;;;16.53;13.60;;;;;;;8.31;100.00;97351.81;4909529;28;20220;-63
2022/10/25 06:57:03;;;;;;;15.87;13.30;;;;;;;8.38;100.00;97350.16;4955806;28;20229;-63
2022/10/25 06:59:31;;;;;;;15.20;12.97;;;;;;;8.53;100.00;97352.97;4955763;28;20623;-67
2022/10/25 07:01:59;;;;;;;24.83;14.77;;;;;;;8.64;100.00;97350.97;4957814;28;21594;-62
2022/10/25 07:04:31;;;;;;;16.97;13.53;;;;;;;8.68;100.00;97368.97;4928937;28;22786;-62
2022/10/25 07:06:59;;;;;;;18.47;14.17;;;;;;;8.66;100.00;97360.38;4949541;28;21165;-61
2022/10/25 07:09:28;;;;;;;19.97;14.10;;;;;;;8.73;100.00;97370.28;4906505;28;20709;-62
2022/10/25 07:11:57;;;;;;;16.90;12.50;;;;;;;8.77;100.00;97364.50;4955468;28;20425;-63
2022/10/25 07:14:26;;;;;;;15.57;13.03;;;;;;;8.88;100.00;97363.31;4962989;28;20216;-62
2022/10/25 07:16:54;;;;;;;15.27;12.70;;;;;;;8.98;100.00;97366.59;4965059;28;20598;-63
2022/10/25 07:19:23;;;;;;;19.00;14.10;;;;;;;9.12;100.00;97375.66;4963059;28;20212;-62
2022/10/25 07:21:52;;;;;;;15.93;13.10;;;;;;;9.19;100.00;97374.97;4963906;28;20224;-61
2022/10/25 07:24:20;;;;;;;17.07;13.83;;;;;;;9.32;100.00;97383.19;4961463;28;20228;-61
2022/10/25 07:26:48;;;;;;;17.87;13.53;;;;;;;9.51;100.00;97383.78;4963215;28;20232;-61
2022/10/25 07:29:18;;;;;;;16.87;13.03;;;;;;;9.45;100.00;97384.44;4961781;28;20240;-62
2022/10/25 07:31:46;;;;;;;14.17;12.77;;;;;;;9.56;100.00;97376.16;4965411;28;20422;-63
2022/10/25 07:34:15;;;;;;;15.20;13.63;;;;;;;9.60;100.00;97387.19;4962785;28;20571;-61
2022/10/25 07:36:44;;;;;;;15.03;13.40;;;;;;;9.74;100.00;97383.00;4962937;28;20334;-62
2022/10/25 07:39:12;;;;;;;12.87;11.57;;;;;;;10.03;100.00;97394.75;4962926;28;20221;-62
2022/10/25 07:41:41;;;;;;;13.43;12.03;;;;;;;10.28;100.00;97393.59;4962462;28;20220;-60
2022/10/25 07:44:09;;;;;;;13.50;12.23;;;;;;;10.42;100.00;97399.97;4962654;28;20689;-63
2022/10/25 07:46:45;;;;;;;12.23;11.07;;;;;;;10.42;100.00;97396.47;4963224;28;20318;-64
2022/10/25 07:49:13;;;;;;;12.87;11.53;;;;;;;10.81;100.00;97405.28;4963244;28;20527;-63
2022/10/25 07:51:42;;;;;;;11.47;10.33;;;;;;;10.87;100.00;97409.84;4962755;28;20326;-63
2022/10/25 07:54:10;;;;;;;12.47;11.23;;;;;;;11.28;100.00;97408.59;4961753;28;20216;-63
2022/10/25 07:56:38;;;;;;;11.87;10.87;;;;;;;11.10;100.00;97398.34;4961051;28;20241;-61
2022/10/25 07:59:06;;;;;;;10.27;9.20;;;;;;;10.97;100.00;97412.22;4961680;28;20228;-62
2022/10/25 08:01:35;;;;;;;10.43;8.80;;;;;;;10.77;100.00;97412.75;4962606;28;21066;-62
2022/10/25 08:04:05;;;;;;;8.53;7.83;;;;;;;10.84;100.00;97404.91;4962491;28;20707;-63
2022/10/25 08:06:34;;;;;;;11.13;8.87;;;;;;;10.66;100.00;97408.69;4961345;28;20233;-64
2022/10/25 08:09:03;;;;;;;9.40;8.53;;;;;;;10.85;100.00;97415.31;4961720;28;20421;-63
2022/10/25 08:11:47;;;;;;;10.67;9.30;;;;;;;10.92;100.00;97412.78;4962171;28;20436;-64
2022/10/25 08:14:15;;;;;;;10.57;8.83;;;;;;;10.87;100.00;97412.50;4961929;28;20197;-62
2022/10/25 08:16:44;;;;;;;10.33;9.43;;;;;;;11.00;100.00;97412.69;4963046;28;20232;-61
2022/10/25 08:19:13;;;;;;;11.03;10.03;;;;;;;10.99;100.00;97413.69;4962365;28;20212;-62
2022/10/25 08:21:42;;;;;;;9.70;8.90;;;;;;;11.13;100.00;97411.22;4962549;28;20439;-62
2022/10/25 08:24:11;;;;;;;9.80;9.00;;;;;;;11.24;100.00;97415.28;4962444;28;20239;-62
2022/10/25 08:26:39;;;;;;;10.20;9.23;;;;;;;11.21;100.00;97413.81;4961784;28;20278;-61
2022/10/25 08:29:08;;;;;;;8.67;7.97;;;;;;;11.39;100.00;97412.63;4962576;28;20395;-61
2022/10/25 08:31:36;;;;;;;9.10;8.33;;;;;;;11.54;100.00;97416.06;4960227;28;20217;-61
2022/10/25 08:34:05;;;;;;;9.83;8.83;;;;;;;13.54;100.00;97409.34;4962088;28;20208;-61
2022/10/25 08:36:35;;;;;;;8.17;7.47;;;;;;;14.71;100.00;97400.41;4960860;28;20336;-60
2022/10/25 08:39:03;;;;;;;7.23;6.73;;;;;;;15.64;100.00;97381.78;4961839;28;22142;-60
2022/10/25 08:41:39;;;;;;;7.00;6.50;;;;;;;16.08;100.00;97363.28;4961331;28;20220;-62
2022/10/25 08:44:18;;;;;;;7.00;6.40;;;;;;;16.43;100.00;97352.13;4962354;28;20218;-61
2022/10/25 08:46:53;;;;;;;6.50;6.00;;;;;;;16.09;100.00;97354.22;4961210;28;20228;-61
2022/10/25 08:49:25;;;;;;;5.97;5.47;;;;;;;14.68;100.00;97370.63;4961946;28;20852;-62
2022/10/25 08:51:56;;;;;;;6.53;5.93;;;;;;;13.91;100.00;97363.78;4963050;28;20400;-61
2022/10/25 08:54:29;;;;;;;5.83;5.47;;;;;;;13.93;100.00;97359.06;4961450;28;20212;-61
2022/10/25 08:57:06;;;;;;;5.50;5.07;;;;;;;13.57;100.00;97355.69;4962555;28;20744;-60
2022/10/25 08:59:47;;;;;;;6.07;5.57;;;;;;;13.35;100.00;97356.78;4960928;28;21585;-61
2022/10/25 09:02:22;;;;;;;6.13;5.50;;;;;;;13.21;100.00;97358.56;4962520;28;20972;-62
2022/10/25 09:04:51;;;;;;;6.60;5.90;;;;;;;13.31;100.00;97367.00;4961257;28;20715;-62
2022/10/25 09:07:44;;;;;;;6.43;5.83;;;;;;;13.51;100.00;97375.13;4960712;28;20623;-64
2022/10/25 09:10:22;;;;;;;6.37;5.97;;;;;;;13.54;100.00;97376.56;4963201;28;21383;-63
2022/10/25 09:12:57;;;;;;;5.73;5.33;;;;;;;13.43;100.00;97369.94;4960980;28;20379;-64
2022/10/25 09:15:38;;;;;;;6.70;6.10;;;;;;;13.49;100.00;97369.19;4959964;28;20666;-61
2022/10/25 09:18:16;;;;;;;6.00;5.10;;;;;;;13.71;100.00;97366.38;4984900;28;20755;-61
2022/10/25 09:20:48;;;;;;;6.00;5.50;;;;;;;13.71;100.00;97366.38;4960886;28;20790;-64
2022/10/25 09:23:24;;;;;;;5.73;5.23;;;;;;;13.71;100.00;97377.88;4961398;28;20461;-62
2022/10/25 09:25:59;;;;;;;5.97;5.47;;;;;;;13.91;100.00;97376.28;4994549;28;20676;-62
2022/10/25 09:28:33;;;;;;;5.73;5.30;;;;;;;13.73;100.00;97381.16;4960353;28;20223;-63
2022/10/25 09:31:03;;;;;;;6.60;6.00;;;;;;;13.76;100.00;97374.59;4989677;28;20208;-63
2022/10/25 09:33:33;;;;;;;6.40;5.83;;;;;;;13.96;100.00;97379.16;4957969;28;20205;-63
2022/10/25 09:36:04;;;;;;;6.87;4.47;;;;;;;14.04;100.00;97382.47;4962116;28;20208;-59
2022/10/25 09:38:38;;;;;;;5.13;4.73;;;;;;;14.24;100.00;97375.53;4960372;28;20761;-63
2022/10/25 09:41:13;;;;;;;6.30;5.57;;;;;;;14.18;100.00;97366.50;4961347;28;20382;-63
2022/10/25 09:43:46;;;;;;;7.10;6.40;;;;;;;14.11;100.00;97371.00;4961762;28;20200;-62
2022/10/25 09:46:18;;;;;;;4.60;4.27;;;;;;;14.04;100.00;97363.00;4960851;28;20444;-63
2022/10/25 09:48:52;;;;;;;4.50;4.20;;;;;;;14.21;100.00;97360.78;4960897;28;20225;-62
2022/10/25 09:51:25;;;;;;;3.67;3.47;;;;;;;14.24;100.00;97371.03;4960600;28;20743;-58
2022/10/25 09:53:55;;;;;;;4.70;4.30;;;;;;;13.99;100.00;97373.44;4953214;28;20201;-63
2022/10/25 09:56:23;;;;;;;5.30;4.90;;;;;;;14.01;100.00;97384.72;4960839;28;20228;-61
2022/10/25 09:58:52;;;;;;;6.67;5.10;;;;;;;14.00;100.00;97378.53;4960986;28;20957;-61
2022/10/25 10:01:24;;;;;;;5.67;5.13;;;;;;;13.98;100.00;97377.94;4960431;28;21001;-61
2022/10/25 10:03:54;;;;;;;7.23;4.93;;;;;;;14.08;100.00;97380.22;4951831;28;20208;-63
2022/10/25 10:06:28;;;;;;;5.00;4.70;;;;;;;13.95;100.00;97373.00;4959148;28;20440;-62
2022/10/25 10:09:01;;;;;;;6.17;4.67;;;;;;;14.25;100.00;97374.53;4960516;28;20228;-62
2022/10/25 10:11:30;;;;;;;4.93;4.10;;;;;;;14.40;100.00;97367.16;4961499;28;21308;-64
2022/10/25 10:14:01;;;;;;;5.77;3.90;;;;;;;14.67;100.00;97374.31;4960530;28;20647;-63
2022/10/25 10:16:41;;;;;;;5.63;4.20;;;;;;;14.50;100.00;97381.91;4963951;28;20545;-63
2022/10/25 10:19:14;;;;;;;5.43;4.67;;;;;;;14.82;100.00;97382.16;4963879;28;22066;-62
2022/10/25 10:21:43;;;;;;;5.00;4.50;;;;;;;14.93;100.00;97378.84;4965401;28;20231;-63
2022/10/25 10:24:17;;;;;;;4.07;3.80;;;;;;;15.05;100.00;97373.72;4963783;28;20220;-63
2022/10/25 10:26:47;;;;;;;4.43;4.10;;;;;;;15.04;100.00;97382.75;4962486;28;20545;-62
2022/10/25 10:29:19;;;;;;;4.37;3.67;;;;;;;14.58;100.00;97377.22;4964694;28;21393;-63
2022/10/25 10:31:50;;;;;;;5.13;4.43;;;;;;;14.71;100.00;97379.09;4962942;28;20833;-61
2022/10/25 10:34:27;;;;;;;4.27;3.33;;;;;;;14.69;100.00;97370.44;4963459;28;20201;-63
2022/10/25 10:37:04;;;;;;;4.43;3.60;;;;;;;14.69;100.00;97373.09;4964060;28;20224;-61
2022/10/25 10:39:34;;;;;;;5.63;4.97;;;;;;;15.03;100.00;97365.94;4963918;28;20205;-64
2022/10/25 10:42:14;;;;;;;5.10;4.80;;;;;;;15.07;100.00;97373.50;4963593;28;20454;-63
2022/10/25 10:45:01;;;;;;;3.40;3.17;;;;;;;15.42;100.00;97370.56;4962994;28;20959;-63
2022/10/25 10:47:33;;;;;;;4.70;2.87;;;;;;;15.54;100.00;97352.03;4962528;28;20236;-61
2022/10/25 10:50:01;;;;;;;4.27;3.87;;;;;;;16.15;100.00;97363.25;4963638;28;20225;-64
2022/10/25 10:52:32;;;;;;;4.83;3.17;;;;;;;17.14;100.00;97346.59;4962985;28;20698;-61
2022/10/25 10:55:02;;;;;;;3.83;2.73;;;;;;;17.28;100.00;97347.28;4963622;28;21554;-62
2022/10/25 10:57:32;;;;;;;2.00;1.90;;;;;;;17.35;92.16;97336.47;4962750;28;20264;-62
2022/10/25 11:00:01;;;;;;;1.90;1.70;;;;;;;17.13;87.64;97336.09;4962862;28;20209;-63
2022/10/25 11:02:37;;;;;;;2.20;1.50;;;;;;;17.24;86.99;97330.03;4963064;28;20208;-63
2022/10/25 11:05:19;;;;;;;2.53;1.27;;;;;;;16.64;81.76;97334.88;4964574;28;20212;-63
2022/10/25 11:07:55;;;;;;;3.40;1.30;;;;;;;16.56;83.17;97337.84;4965216;28;20252;-62
2022/10/25 11:10:32;;;;;;;4.10;1.50;;;;;;;16.82;83.55;97324.44;4962681;28;20239;-61
2022/10/25 11:13:08;;;;;;;2.03;1.27;;;;;;;16.69;81.81;97339.59;4962919;28;20525;-63
2022/10/25 11:16:14;;;;;;;2.67;1.37;;;;;;;16.41;82.33;97338.16;4963917;28;20680;-61
2022/10/25 11:18:50;;;;;;;3.37;1.43;;;;;;;16.26;84.25;97338.47;4962404;28;20716;-63
2022/10/25 11:21:33;;;;;;;3.00;2.67;;;;;;;15.93;86.03;97336.88;4964135;28;20235;-61
2022/10/25 11:24:08;;;;;;;2.30;1.77;;;;;;;15.77;85.46;97322.13;4963451;28;20201;-61
2022/10/25 11:26:48;;;;;;;3.10;1.93;;;;;;;16.03;83.69;97323.00;4962584;28;20618;-61
2022/10/25 11:29:23;;;;;;;1.73;1.53;;;;;;;16.18;83.69;97325.38;4962454;28;20196;-62
2022/10/25 11:31:58;;;;;;;3.67;1.30;;;;;;;16.10;83.61;97320.31;4962059;28;20220;-61
2022/10/25 11:34:33;;;;;;;1.83;1.40;;;;;;;16.24;84.63;97323.72;4963747;28;20220;-63
2022/10/25 11:37:08;;;;;;;4.40;1.80;;;;;;;16.18;83.17;97318.19;4991801;28;20300;-62
2022/10/25 11:39:50;;;;;;;5.60;1.63;;;;;;;16.37;82.09;97307.56;4962978;28;20233;-63
2022/10/25 11:42:42;;;;;;;5.27;1.50;;;;;;;16.31;81.72;97303.09;4962610;28;20473;-61
2022/10/25 11:45:33;;;;;;;3.70;1.77;;;;;;;16.29;81.66;97313.19;4964669;28;20197;-61